Golden, Illinois
Current Conditions -  °F | °C
As of 11:54 PM on Monday 26 Jan 2015 (Local Time) from KUIN Reporting Station
Scattered Clouds Scattered Clouds  
Wind Chill: 32°   Ceiling: Unl
Heat Index: 39°   Visibility: 10mi
Dew Point: 34°   Wind: 12mph
Humidity: 82%   Direction: 320°NW
Pressure: 29.92"   Gusts: NA
Location:  40.11°N, 91.02°W
Report Text: KUIN 270554Z AUTO 32010KT 10SM SCT046 04/01 A2992 RMK AO2 SLP138 T00390011 10044 20022 400561044 53010
Loading
Personal Weather Stations






























Interactive Weather Map New forecast layout! Learn more

10-Day Weather Forecast

Advertisements
Track Severe Weather on mobile